createdAt,value
2023-04-02T00:03:24.858Z,92
2023-04-02T00:06:50.064Z,92
2023-04-02T00:10:15.348Z,92
2023-04-02T00:13:40.669Z,92
2023-04-02T00:17:05.910Z,93
2023-04-02T00:20:31.168Z,93
2023-04-02T00:23:56.433Z,93
2023-04-02T00:27:21.660Z,92
2023-04-02T00:30:46.957Z,92
2023-04-02T00:34:12.169Z,91
2023-04-02T00:37:37.443Z,92
2023-04-02T00:41:02.760Z,91
2023-04-02T00:44:27.997Z,91
2023-04-02T00:47:53.299Z,91
2023-04-02T00:51:18.496Z,91
2023-04-02T00:54:43.773Z,90
2023-04-02T00:58:09.010Z,90
2023-04-02T01:01:34.355Z,91
2023-04-02T01:04:59.603Z,91
2023-04-02T01:08:24.882Z,91
2023-04-02T01:11:50.101Z,92
2023-04-02T01:15:15.389Z,92
2023-04-02T01:18:40.660Z,92
2023-04-02T01:22:05.922Z,92
2023-04-02T01:25:31.158Z,92
2023-04-02T01:28:56.434Z,91
2023-04-02T01:32:21.677Z,92
2023-04-02T01:35:46.925Z,93
2023-04-02T01:39:12.218Z,94
2023-04-02T01:42:37.530Z,95
2023-04-02T01:46:02.827Z,95
2023-04-02T01:49:28.163Z,96
2023-04-02T01:52:53.438Z,96
2023-04-02T01:56:18.793Z,96
2023-04-02T01:59:44.062Z,96
2023-04-02T02:03:09.305Z,96
2023-04-02T02:06:34.597Z,96
2023-04-02T02:09:59.868Z,95
2023-04-02T02:13:25.165Z,95
2023-04-02T02:16:50.448Z,95
2023-04-02T02:20:15.682Z,96
2023-04-02T02:23:40.970Z,95
2023-04-02T02:27:06.188Z,95
2023-04-02T02:30:31.516Z,95
2023-04-02T02:33:56.793Z,95
2023-04-02T02:37:22.055Z,95
2023-04-02T02:40:47.273Z,96
2023-04-02T02:44:12.540Z,95
2023-04-02T02:47:37.843Z,96
2023-04-02T02:51:03.080Z,96
2023-04-02T02:54:28.383Z,94
2023-04-02T02:57:53.618Z,94
2023-04-02T03:01:18.924Z,94
2023-04-02T03:04:44.099Z,94
2023-04-02T03:08:09.308Z,94
2023-04-02T03:11:34.575Z,94
2023-04-02T03:14:59.829Z,93
2023-04-02T03:18:25.081Z,93
2023-04-02T03:21:50.350Z,94
2023-04-02T03:25:15.581Z,94
2023-04-02T03:28:40.818Z,94
2023-04-02T03:32:06.048Z,95
2023-04-02T03:35:31.282Z,95
2023-04-02T03:38:56.571Z,94
2023-04-02T03:42:21.823Z,94
2023-04-02T03:45:47.061Z,94
2023-04-02T03:49:12.316Z,94
2023-04-02T03:52:37.564Z,95
2023-04-02T03:56:02.821Z,94
2023-04-02T03:59:28.037Z,93
2023-04-02T04:02:53.315Z,91
2023-04-02T04:06:20.118Z,92
2023-04-02T04:09:43.826Z,92
2023-04-02T04:13:09.071Z,92
2023-04-02T04:16:34.366Z,93
2023-04-02T04:19:59.612Z,92
2023-04-02T04:23:24.879Z,93
2023-04-02T04:26:50.121Z,93
2023-04-02T04:30:15.399Z,92
2023-04-02T04:33:40.626Z,92
2023-04-02T04:37:05.890Z,92
2023-04-02T04:40:31.162Z,91
2023-04-02T04:43:56.416Z,92
2023-04-02T04:47:21.715Z,92
2023-04-02T04:50:46.934Z,91
2023-04-02T04:54:12.202Z,92
2023-04-02T04:57:37.432Z,92
2023-04-02T05:01:02.754Z,91
2023-04-02T05:04:27.996Z,92
2023-04-02T05:07:53.174Z,92
2023-04-02T05:11:18.440Z,92
2023-04-02T05:14:43.727Z,91
2023-04-02T05:18:08.955Z,92
2023-04-02T05:21:34.208Z,92
2023-04-02T05:24:59.456Z,93
2023-04-02T05:28:24.755Z,93
2023-04-02T05:31:50.031Z,93
2023-04-02T05:35:15.316Z,93
2023-04-02T05:38:40.642Z,92
2023-04-02T05:42:05.951Z,91
2023-04-02T05:45:31.221Z,90
2023-04-02T05:48:56.530Z,91
2023-04-02T05:52:21.767Z,91
2023-04-02T05:55:46.994Z,91
2023-04-02T05:59:12.252Z,90
2023-04-02T06:02:37.688Z,90
2023-04-02T06:06:02.795Z,91
2023-04-02T06:09:28.031Z,91
2023-04-02T06:12:53.309Z,91
2023-04-02T06:16:18.606Z,92
2023-04-02T06:19:43.787Z,92
2023-04-02T06:23:09.083Z,91
2023-04-02T06:26:34.302Z,91
2023-04-02T06:29:59.601Z,91
2023-04-02T06:33:24.805Z,91
2023-04-02T06:36:50.056Z,91
2023-04-02T06:40:15.326Z,91
2023-04-02T06:43:40.592Z,91
2023-04-02T06:47:05.874Z,92
2023-04-02T06:50:31.091Z,93
2023-04-02T06:53:56.335Z,93
2023-04-02T06:57:21.605Z,93
2023-04-02T07:00:46.847Z,93
2023-04-02T07:04:12.092Z,92
2023-04-02T07:07:37.346Z,91
2023-04-02T07:11:02.561Z,93
2023-04-02T07:14:27.808Z,93
2023-04-02T07:17:53.125Z,93
2023-04-02T07:21:18.372Z,93
2023-04-02T07:24:43.651Z,94
2023-04-02T07:28:08.911Z,94
2023-04-02T07:31:34.201Z,93
2023-04-02T07:34:59.452Z,93
2023-04-02T07:38:24.748Z,93
2023-04-02T07:41:53.357Z,92
2023-04-02T07:45:18.644Z,93
2023-04-02T07:48:43.885Z,93
2023-04-02T07:52:09.180Z,93
2023-04-02T07:55:34.665Z,93
2023-04-02T07:58:59.675Z,93
2023-04-02T08:02:25.049Z,93
2023-04-02T08:05:50.825Z,92
2023-04-02T08:09:16.100Z,93
2023-04-02T08:12:41.364Z,93
2023-04-02T08:16:06.624Z,93
2023-04-02T08:19:33.680Z,94
2023-04-02T08:22:57.118Z,94
2023-04-02T08:26:22.367Z,94
2023-04-02T08:29:47.602Z,94
2023-04-02T08:33:12.963Z,94
2023-04-02T08:36:38.106Z,94
2023-04-02T08:40:03.311Z,94
2023-04-02T08:43:28.567Z,95
2023-04-02T08:46:53.836Z,94
2023-04-02T08:50:19.110Z,95
2023-04-02T08:53:44.316Z,95
2023-04-02T08:57:09.571Z,96
2023-04-02T09:00:35.620Z,96
2023-04-02T09:04:00.029Z,95
2023-04-02T09:07:25.235Z,95
2023-04-02T09:10:50.477Z,95
2023-04-02T09:14:15.700Z,94
2023-04-02T09:17:51.057Z,94
2023-04-02T09:21:06.201Z,94
2023-04-02T09:24:31.478Z,94
2023-04-02T09:27:56.691Z,95
2023-04-02T09:31:21.951Z,95
2023-04-02T09:34:47.152Z,95
2023-04-02T09:38:12.427Z,94
2023-04-02T09:41:37.636Z,93
2023-04-02T09:45:02.901Z,94
2023-04-02T09:48:28.131Z,95
2023-04-02T09:51:53.379Z,95
2023-04-02T09:55:18.643Z,95
2023-04-02T09:58:43.864Z,95
2023-04-02T10:02:09.057Z,95
2023-04-02T10:05:39.737Z,95
2023-04-02T10:08:59.520Z,94
2023-04-02T10:12:24.773Z,94
2023-04-02T10:15:49.970Z,95
2023-04-02T10:19:15.189Z,94
2023-04-02T10:22:40.444Z,95
2023-04-02T10:26:05.687Z,95
2023-04-02T10:29:30.945Z,96
2023-04-02T10:32:56.160Z,96
2023-04-02T10:36:21.380Z,95
2023-04-02T10:39:46.600Z,96
2023-04-02T10:43:11.822Z,96
2023-04-02T10:46:37.131Z,96
2023-04-02T10:50:02.253Z,97
2023-04-02T10:53:27.505Z,96
2023-04-02T10:56:52.761Z,96
2023-04-02T11:00:17.935Z,96
2023-04-02T11:03:45.607Z,97
2023-04-02T11:07:14.234Z,96
2023-04-02T11:10:35.884Z,96
2023-04-02T11:14:01.197Z,96
2023-04-02T11:17:26.483Z,96
2023-04-02T11:20:51.708Z,95
2023-04-02T11:24:16.912Z,94
2023-04-02T11:27:42.147Z,93
2023-04-02T11:31:07.392Z,93
2023-04-02T11:34:32.630Z,92
2023-04-02T11:37:57.888Z,92
2023-04-02T11:41:23.079Z,91
2023-04-02T11:44:48.320Z,91
2023-04-02T11:48:13.562Z,92
2023-04-02T11:51:38.809Z,91
2023-04-02T11:55:04.094Z,91
2023-04-02T11:58:29.317Z,90
2023-04-02T12:01:54.721Z,89
2023-04-02T12:05:19.971Z,91
2023-04-02T12:08:56.911Z,89
2023-04-02T12:12:10.460Z,90
2023-04-02T12:15:35.986Z,91
2023-04-02T12:19:01.029Z,90
2023-04-02T12:22:26.229Z,89
2023-04-02T12:25:51.467Z,88
2023-04-02T12:29:16.722Z,87
2023-04-02T12:32:41.941Z,88
2023-04-02T12:36:07.173Z,88
2023-04-02T12:39:32.386Z,88
2023-04-02T12:42:57.594Z,86
2023-04-02T12:46:22.858Z,87
2023-04-02T12:49:48.042Z,87
2023-04-02T12:53:13.272Z,87
2023-04-02T12:56:38.482Z,88
2023-04-02T13:00:03.693Z,89
2023-04-02T13:03:29.231Z,89
2023-04-02T13:06:54.166Z,89
2023-04-02T13:10:19.403Z,90
2023-04-02T13:13:44.633Z,89
2023-04-02T13:17:09.851Z,89
2023-04-02T13:20:35.353Z,89
2023-04-02T13:24:00.333Z,91
2023-04-02T13:27:25.545Z,90
2023-04-02T13:30:50.791Z,91
2023-04-02T13:34:16.041Z,91
2023-04-02T13:37:41.312Z,91
2023-04-02T13:41:06.491Z,91
2023-04-02T13:44:31.715Z,92
2023-04-02T13:47:56.949Z,92
2023-04-02T13:51:22.206Z,91
2023-04-02T13:54:47.438Z,91
2023-04-02T13:58:12.631Z,90
2023-04-02T14:01:37.873Z,90
2023-04-02T14:05:03.094Z,91
2023-04-02T14:08:28.351Z,91
2023-04-02T14:11:53.638Z,91
2023-04-02T14:15:18.940Z,91
2023-04-02T14:18:44.230Z,91
2023-04-02T14:22:09.521Z,91
2023-04-02T14:25:35.073Z,90
2023-04-02T14:29:00.115Z,91
2023-04-02T14:32:25.334Z,91
2023-04-02T14:35:50.719Z,90
2023-04-02T14:39:15.880Z,90
2023-04-02T14:42:41.165Z,91
2023-04-02T14:46:06.492Z,91
2023-04-02T14:49:31.673Z,91
2023-04-02T14:52:56.888Z,91
2023-04-02T14:56:22.158Z,92
2023-04-02T14:59:47.377Z,91
2023-04-02T15:03:12.667Z,91
2023-04-02T15:41:14.144Z,89
2023-04-02T15:44:39.372Z,89
2023-04-02T15:48:04.594Z,88
2023-04-02T15:51:29.764Z,89
2023-04-02T15:54:54.971Z,89
2023-04-02T15:58:20.227Z,88
2023-04-02T16:01:45.412Z,88
2023-04-02T16:05:10.613Z,89
2023-04-02T16:08:35.851Z,88
2023-04-02T16:12:01.096Z,88
2023-04-02T16:15:26.297Z,89
2023-04-02T16:18:51.561Z,88
2023-04-02T16:22:16.744Z,88
2023-04-02T16:25:41.985Z,89
2023-04-02T16:29:07.234Z,88
2023-04-02T16:32:32.659Z,88
2023-04-02T16:35:57.973Z,88
2023-04-02T16:39:23.163Z,88
2023-04-02T16:42:48.375Z,89
2023-04-02T16:46:13.679Z,90
2023-04-02T16:49:38.898Z,89
2023-04-02T16:53:04.062Z,89
2023-04-02T16:56:29.275Z,89
2023-04-02T16:59:54.536Z,90
2023-04-02T17:03:19.958Z,89
2023-04-02T17:06:45.135Z,88
2023-04-02T17:10:10.384Z,89
2023-04-02T17:13:35.709Z,89
2023-04-02T17:17:01.115Z,89
2023-04-02T17:20:26.405Z,89
2023-04-02T17:27:17.061Z,88
2023-04-02T17:30:42.435Z,88
2023-04-02T17:34:07.714Z,88
2023-04-02T17:37:33.042Z,88
2023-04-02T17:40:58.212Z,88
2023-04-02T17:44:23.487Z,88
2023-04-02T17:47:48.776Z,87
2023-04-02T17:51:14.063Z,85
2023-04-02T17:54:39.306Z,85
2023-04-02T17:58:04.552Z,85
2023-04-02T18:01:29.762Z,85
2023-04-02T18:04:55.010Z,86
2023-04-02T18:08:20.268Z,87
2023-04-02T18:11:45.504Z,86
2023-04-02T18:15:10.797Z,85
2023-04-02T18:18:35.999Z,85
2023-04-02T18:22:01.245Z,85
2023-04-02T18:25:26.528Z,84
2023-04-02T18:28:51.803Z,84
2023-04-02T18:32:17.065Z,84
2023-04-02T18:35:42.356Z,84
2023-04-02T18:39:07.564Z,84
2023-04-02T18:42:32.794Z,83
2023-04-02T18:45:58.041Z,84
2023-04-02T18:49:23.311Z,83
2023-04-02T18:52:48.512Z,84
2023-04-02T18:56:13.804Z,83
2023-04-02T18:59:43.188Z,84
2023-04-02T19:03:08.487Z,84
2023-04-02T19:06:33.762Z,84
2023-04-02T19:09:59.093Z,84
2023-04-02T19:13:24.374Z,84
2023-04-02T19:16:49.690Z,84
2023-04-02T19:20:14.991Z,84
2023-04-02T19:23:40.299Z,84
2023-04-02T19:27:05.553Z,83
2023-04-02T19:30:30.868Z,83
2023-04-02T19:33:56.185Z,84
2023-04-02T19:37:21.464Z,83
2023-04-02T19:40:46.798Z,82
2023-04-02T19:44:13.143Z,83
2023-04-02T19:47:37.391Z,83
2023-04-02T19:51:02.659Z,83
2023-04-02T19:54:27.992Z,83
2023-04-02T19:57:57.943Z,82
2023-04-02T20:01:18.615Z,82
2023-04-02T20:04:43.844Z,82
2023-04-02T20:08:09.126Z,82
2023-04-02T20:11:34.411Z,82
2023-04-02T20:14:59.756Z,82
2023-04-02T20:18:25.009Z,82
2023-04-02T20:21:50.298Z,80
2023-04-02T20:25:15.565Z,81
2023-04-02T20:28:40.855Z,81
2023-04-02T20:32:06.160Z,79
2023-04-02T20:35:31.493Z,79
2023-04-02T20:38:56.771Z,79
2023-04-02T20:42:22.046Z,79
2023-04-02T20:45:47.399Z,78
2023-04-02T20:49:12.735Z,78
2023-04-02T20:52:38.029Z,78
2023-04-02T20:56:03.328Z,79
2023-04-02T20:59:28.633Z,79
2023-04-02T21:02:54.065Z,79
2023-04-02T21:06:19.319Z,79
2023-04-02T21:09:44.605Z,79
2023-04-02T21:13:09.920Z,79
2023-04-02T21:16:35.264Z,79
2023-04-02T21:20:00.443Z,78
2023-04-02T21:23:25.816Z,79
2023-04-02T21:26:51.089Z,79
2023-04-02T21:30:16.390Z,78
2023-04-02T21:33:41.673Z,78
2023-04-02T21:37:06.948Z,79
2023-04-02T21:40:32.294Z,79
2023-04-02T21:43:57.671Z,79
2023-04-02T21:47:22.986Z,79
2023-04-02T21:50:48.281Z,78
2023-04-02T21:54:13.598Z,78
2023-04-02T21:57:39.000Z,78
2023-04-02T22:01:05.534Z,78
2023-04-02T22:04:29.675Z,77
2023-04-02T22:07:54.977Z,78
2023-04-02T22:11:20.205Z,79
2023-04-02T22:14:45.581Z,79
2023-04-02T22:18:10.855Z,80
2023-04-02T22:21:36.155Z,79
2023-04-02T22:25:01.443Z,79
2023-04-02T22:28:26.703Z,79
2023-04-02T22:31:52.042Z,79
2023-04-02T22:35:17.294Z,80
2023-04-02T22:38:42.555Z,79
2023-04-02T22:42:07.808Z,80
2023-04-02T22:45:33.753Z,79
2023-04-02T22:48:59.070Z,81
2023-04-02T22:52:24.345Z,82
2023-04-02T22:55:49.704Z,82
2023-04-02T22:59:15.055Z,83
2023-04-02T23:02:40.332Z,83
2023-04-02T23:06:05.611Z,83
2023-04-02T23:09:30.946Z,83
2023-04-02T23:12:56.211Z,83
2023-04-02T23:16:21.595Z,84
2023-04-02T23:19:46.846Z,85
2023-04-02T23:23:12.200Z,84
2023-04-02T23:26:37.464Z,84
2023-04-02T23:30:02.823Z,84
2023-04-02T23:33:28.091Z,83
2023-04-02T23:36:53.378Z,84
2023-04-02T23:40:18.712Z,84
2023-04-02T23:43:44.003Z,85
2023-04-02T23:47:09.279Z,85
2023-04-02T23:50:34.747Z,85
2023-04-02T23:53:59.785Z,85
2023-04-02T23:57:25.090Z,86
